Latest Weather Observations for Cooma Airport

IDN60801

Issued at 4:05 am EDT Sunday 1 March 2015 (issued every 30 minutes, with the page automatically refreshed every 10 minutes)

About weather observations | Map of weather stations | Latest weather observations for NSW | Other Formats
Station Details ID: 070217 Name: COOMA AIRPORT AWS Lat: -36.29 Lon: 148.97 Height: 930.0 m
Data from the previous 72 hours. | See also: Recent months for locations in New South Wales
Date/Time
EDT
Temp
°C
App
Temp
°C
Dew
Point
Rel
Hum
%
Delta-T
°C
Wind Press
QNH
hPa
Press
MSL
hPa
Rain
since 9 am
mm
Dir
 
Spd
km/h
Gust
km/h
Spd
kts
Gust
kts
01/04:00am 19.8 16.2 10.0 53 5.5 N 19 26 10 14 1007.4 1003.2 -
01/03:53am 19.7 17.0 10.4 55 5.3 N 15 26 8 14 1007.5 1003.3 -
01/03:30am 14.2 12.6 11.5 84 1.5 NE 11 15 6 8 1007.6 1003.4 -
01/03:00am 14.0 11.9 11.3 84 1.5 NNE 13 13 7 7 1007.7 1003.5 -
01/02:00am 14.1 12.6 10.5 79 2.0 ENE 9 13 5 7 1008.3 1004.2 0.0
01/01:30am 13.8 11.9 10.4 80 1.9 NE 11 13 6 7 1008.7 1004.5 0.0
01/01:00am 14.5 11.9 10.7 78 2.1 ENE 15 17 8 9 1008.9 1004.8 0.0
01/12:30am 14.5 13.5 10.9 79 2.0 NE 7 9 4 5 1009.3 1005.2 0.0
01/12:00am 14.6 13.5 10.8 78 2.1 NE 7 9 4 5 1009.5 1005.4 0.0
 
Date/Time
EDT
Temp
°C
App
Temp
°C
Dew
Point
Rel
Hum
%
Delta-T
°C
Wind Press
QNH
hPa
Press
MSL
hPa
Rain
since 9 am
mm
Dir
 
Spd
km/h
Gust
km/h
Spd
kts
Gust
kts
28/11:30pm 14.0 13.1 10.6 80 1.9 N 6 7 3 4 1009.8 1005.7 0.0
28/11:00pm 14.7 15.1 11.1 79 2.0 CALM 0 0 0 0 1010.1 1006.0 0.0
28/10:30pm 14.8 14.5 11.6 81 1.8 NNE 4 6 2 3 1010.3 1006.2 0.0
28/10:00pm 15.7 16.4 12.1 79 2.1 CALM 0 0 0 0 1010.5 1006.4 0.0
28/09:30pm 15.9 16.4 11.7 76 2.4 CALM 0 0 0 0 1010.6 1006.5 0.0
28/08:30pm 18.2 18.7 11.7 66 3.7 CALM 0 0 0 0 1010.5 1006.4 0.0
28/08:00pm 21.1 21.6 12.8 59 4.9 NW 2 6 1 3 1010.4 1006.3 0.0
28/07:30pm 22.8 22.3 12.7 53 6.0 NNW 7 9 4 5 1010.2 1006.1 0.0
28/07:00pm 23.6 22.5 12.0 48 6.9 NNW 9 13 5 7 1010.1 1006.0 0.0
28/06:30pm 24.6 22.7 10.5 41 8.2 NW 11 17 6 9 1009.9 1005.8 0.0
28/06:00pm 25.5 23.0 9.7 37 9.1 NNW 13 20 7 11 1009.9 1005.8 0.0
28/05:30pm 25.1 23.2 10.6 40 8.4 NNW 11 17 6 9 1009.9 1005.8 0.0
28/05:00pm 25.8 22.4 10.4 38 9.0 NW 19 28 10 15 1010.1 1006.0 0.0
28/04:30pm 25.8 23.5 10.4 38 9.0 NW 13 19 7 10 1010.0 1005.9 0.0
28/04:00pm 26.6 23.4 11.1 38 9.2 NNW 19 26 10 14 1010.1 1006.0 0.0
28/03:30pm 26.6 22.9 11.5 39 9.0 NNW 22 30 12 16 1010.1 1006.0 0.0
28/03:00pm 25.6 21.4 8.1 33 9.8 NW 20 28 11 15 1010.5 1006.4 0.0
28/02:30pm 25.7 21.4 9.5 36 9.3 NNW 22 30 12 16 1010.7 1006.7 0.0
28/02:00pm 25.8 21.7 8.8 34 9.6 NW 20 28 11 15 1011.1 1007.0 0.0
28/01:30pm 25.4 21.8 9.7 37 9.0 NW 19 28 10 15 1011.4 1007.3 0.0
28/01:00pm 24.5 20.3 9.6 39 8.5 NNW 22 32 12 17 1011.6 1007.5 0.0
28/12:30pm 24.7 20.4 10.6 41 8.2 NNW 24 33 13 18 1012.1 1008.0 0.0
28/12:00pm 25.3 22.8 12.2 44 7.8 NNW 17 24 9 13 1012.2 1008.1 0.0
28/11:30am 23.3 21.4 12.9 52 6.2 NNE 15 20 8 11 1012.4 1008.3 0.0
28/11:00am 22.4 20.7 12.6 54 5.8 NE 13 17 7 9 1012.7 1008.7 0.0
28/10:30am 19.1 17.5 15.0 77 2.5 NE 17 20 9 11 1012.8 1008.8 0.0
28/10:00am 16.9 15.1 14.4 85 1.5 NNE 17 22 9 12 1012.8 1008.8 0.0
28/09:30am 16.8 15.9 15.8 94 0.6 NE 15 20 8 11 1013.0 1009.0 0.0
28/09:00am 15.4 13.7 14.6 95 0.5 NE 17 22 9 12 1012.8 1008.8 -
28/08:30am 14.9 13.5 14.6 98 0.2 NE 15 17 8 9 1013.2 1009.1 -
28/08:00am 14.3 12.8 14.1 99 0.1 NE 15 17 8 9 1012.9 1008.9 -
28/07:30am 13.7 11.6 13.5 99 0.1 ENE 17 20 9 11 1012.6 1008.6 -
28/07:00am 13.1 11.5 12.9 99 0.1 NE 13 15 7 8 1012.5 1008.4 -
28/06:38am 13.2 11.7 13.0 99 0.1 NE 13 15 7 8 1012.3 1008.2 -
28/06:30am 13.4 11.6 13.2 99 0.1 NE 15 17 8 9 1012.3 1008.2 -
28/05:59am 14.1 12.9 14.1 100 0.0 NE 13 15 7 8 1012.1 1008.0 -
28/05:30am 14.7 13.7 14.7 100 0.0 NNE 13 17 7 9 1012.0 1007.9 -
28/05:00am 15.1 14.7 15.1 100 0.0 NNE 11 15 6 8 1011.8 1007.8 -
28/04:30am 15.2 15.6 15.2 100 0.0 NE 7 9 4 5 1012.1 1008.0 -
28/04:00am 15.0 14.5 14.8 99 0.1 NE 11 11 6 6 1012.3 1008.2 -
28/03:30am 15.3 17.0 15.1 99 0.1 CALM 0 0 0 0 1012.6 1008.6 -
28/03:00am 15.5 16.1 15.3 99 0.1 N 6 7 3 4 1012.7 1008.7 0.0
28/02:30am 15.6 16.0 15.4 99 0.1 N 7 9 4 5 1012.7 1008.7 -
28/02:27am 15.5 15.9 15.3 99 0.1 NNE 7 9 4 5 1012.7 1008.7 -
28/02:23am 15.4 15.8 15.2 99 0.1 NNE 7 9 4 5 1012.7 1008.7 -
28/02:03am 15.3 15.6 15.1 99 0.1 NNE 7 7 4 4 1012.9 1008.9 -
28/02:00am 15.4 15.7 15.1 98 0.2 NNE 7 7 4 4 1013.0 1009.0 -
28/01:30am 16.4 17.3 16.1 98 0.2 NNE 6 9 3 5 1013.2 1009.1 -
28/01:00am 16.4 17.7 16.1 98 0.2 NE 4 9 2 5 1013.5 1009.4 -
28/12:30am 16.3 16.6 16.1 99 0.1 N 9 13 5 7 1013.3 1009.2 -
28/12:00am 16.2 16.1 16.0 99 0.1 NNE 11 13 6 7 1013.3 1009.2 -
 
Date/Time
EDT
Temp
°C
App
Temp
°C
Dew
Point
Rel
Hum
%
Delta-T
°C
Wind Press
QNH
hPa
Press
MSL
hPa
Rain
since 9 am
mm
Dir
 
Spd
km/h
Gust
km/h
Spd
kts
Gust
kts
27/11:30pm 16.3 16.6 16.1 99 0.1 NNE 9 13 5 7 1013.4 1009.3 -
27/11:00pm 16.0 15.5 15.8 99 0.1 NE 13 15 7 8 1013.4 1009.3 -
27/10:53pm 15.6 15.3 15.4 99 0.1 NE 11 15 6 8 1013.5 1009.4 -
27/10:30pm 15.2 14.6 14.7 97 0.3 NNE 11 13 6 7 1013.6 1009.6 -
27/10:00pm 16.5 17.2 15.7 95 0.5 NNE 6 9 3 5 1013.7 1009.7 -
27/09:30pm 16.2 16.2 15.2 94 0.6 NNE 9 13 5 7 1013.4 1009.3 -
27/09:00pm 17.2 16.2 15.5 90 1.0 ENE 15 20 8 11 1013.3 1009.2 -
27/08:30pm 17.7 16.7 15.7 88 1.2 E 15 19 8 10 1012.7 1008.7 -
27/08:00pm 17.0 17.2 10.6 66 3.6 CALM 0 0 0 0 1012.1 1008.0 -
27/07:30pm 19.5 18.1 10.8 57 4.9 SW 9 13 5 7 1011.4 1007.3 -
27/07:00pm 21.2 19.0 10.7 51 6.0 SSW 13 19 7 10 1011.1 1007.0 -
27/06:30pm 23.9 22.2 9.9 41 8.0 SSW 9 17 5 9 1011.0 1006.9 -
27/06:00pm 24.7 21.9 8.6 36 9.1 SW 13 22 7 12 1010.9 1006.8 -
27/05:30pm 25.2 22.2 7.8 33 9.7 WSW 13 19 7 10 1010.6 1006.5 -
27/04:30pm 25.3 22.9 8.7 35 9.4 W 11 19 6 10 1010.4 1006.3 0.2
27/04:00pm 25.3 22.5 7.0 31 10.0 WSW 11 20 6 11 1010.5 1006.4 0.2
27/03:30pm 24.4 22.3 6.6 32 9.6 NW 7 15 4 8 1010.9 1006.8 0.2
27/03:00pm 25.0 23.2 9.3 37 8.9 SSW 9 20 5 11 1011.1 1007.0 0.2
27/02:30pm 24.2 21.2 7.8 35 9.1 WSW 13 20 7 11 1011.3 1007.2 0.2
27/02:00pm 23.8 21.2 9.4 40 8.2 WSW 13 22 7 12 1011.5 1007.4 0.2
27/01:30pm 22.1 19.0 10.3 47 6.7 SW 17 22 9 12 1011.6 1007.5 0.2
27/01:00pm 23.9 21.6 11.9 47 7.1 NW 15 26 8 14 1012.0 1007.9 0.2
27/12:30pm 22.2 19.6 10.7 48 6.6 N 15 24 8 13 1012.3 1008.2 0.2
27/12:00pm 20.9 17.7 14.3 66 4.0 NE 24 30 13 16 1012.6 1008.6 0.2
27/11:30am 20.3 18.2 15.3 73 3.1 NE 20 30 11 16 1012.8 1008.8 0.0
27/11:00am 19.2 17.1 15.1 77 2.5 NE 20 28 11 15 1012.9 1008.9 0.0
27/10:30am 18.3 16.0 14.6 79 2.2 NE 20 26 11 14 1013.0 1009.0 0.0
27/10:00am 17.3 15.0 14.6 84 1.6 NE 20 26 11 14 1012.9 1008.9 0.0
27/09:44am 16.8 14.5 14.1 84 1.6 NE 19 24 10 13 1012.9 1008.9 0.0
27/09:30am 15.6 13.5 14.6 94 0.6 NE 19 24 10 13 1013.0 1009.0 0.0
27/09:00am 13.6 11.5 13.6 100 0.0 NE 17 20 9 11 1012.9 1008.9 0.0
27/08:30am 12.7 10.3 12.7 100 0.0 NE 17 19 9 10 1012.8 1008.8 0.0
27/08:00am 12.3 9.8 12.3 100 0.0 NE 17 20 9 11 1012.8 1008.8 0.0
27/07:30am 12.6 10.9 12.6 100 0.0 NNE 13 15 7 8 1012.6 1008.6 0.0
27/07:00am 12.2 10.8 12.2 100 0.0 NNE 11 13 6 7 1012.5 1008.4 0.0
27/06:30am 13.1 12.7 13.1 100 0.0 NE 7 9 4 5 1012.5 1008.4 0.0
27/06:00am 13.3 12.6 13.1 99 0.1 NNE 9 11 5 6 1012.4 1008.3 0.0
27/05:50am 13.4 12.7 13.2 99 0.1 NNE 9 11 5 6 1012.4 1008.3 0.0
27/05:45am 13.5 12.8 13.3 99 0.1 NNE 9 11 5 6 1012.5 1008.4 0.0
27/05:30am 13.6 13.0 13.4 99 0.1 NNE 9 11 5 6 1012.4 1008.3 0.0
27/05:00am 13.6 13.5 13.4 99 0.1 N 6 7 3 4 1012.5 1008.4 0.0
27/04:30am 13.3 12.6 13.1 99 0.1 NNE 9 11 5 6 1012.2 1008.1 0.0
27/04:00am 14.1 14.2 13.9 99 0.1 NE 6 9 3 5 1012.5 1008.4 0.0
27/03:52am 14.1 14.2 13.9 99 0.1 NNE 6 7 3 4 1012.6 1008.6 0.0
27/03:30am 14.4 14.4 14.2 99 0.1 N 7 9 4 5 1012.6 1008.6 0.0
27/03:00am 14.4 15.4 14.2 99 0.1 NNE 2 9 1 5 1012.8 1008.8 0.0
27/02:30am 14.4 14.6 14.2 99 0.1 NE 6 9 3 5 1012.9 1008.9 0.0
27/02:00am 14.4 13.7 14.2 99 0.1 NNE 11 15 6 8 1013.0 1009.0 0.0
27/01:49am 14.3 15.2 14.1 99 0.1 NE 2 6 1 3 1013.3 1009.2 0.0
27/01:30am 14.1 14.2 13.9 99 0.1 NE 6 7 3 4 1013.5 1009.4 0.0
27/01:00am 14.0 13.9 13.8 99 0.1 N 7 9 4 5 1013.7 1009.7 0.0
27/12:30am 13.7 13.1 13.5 99 0.1 NE 9 11 5 6 1013.8 1009.8 0.0
27/12:00am 14.6 14.6 14.1 97 0.3 N 7 13 4 7 1013.9 1009.9 0.0
 
Date/Time
EDT
Temp
°C
App
Temp
°C
Dew
Point
Rel
Hum
%
Delta-T
°C
Wind Press
QNH
hPa
Press
MSL
hPa
Rain
since 9 am
mm
Dir
 
Spd
km/h
Gust
km/h
Spd
kts
Gust
kts
26/11:34pm 15.1 14.6 14.9 99 0.1 NNE 11 13 6 7 1013.9 1009.9 0.0
26/11:30pm 15.2 14.7 15.0 99 0.1 NNE 11 13 6 7 1013.9 1009.9 0.0
26/11:22pm 15.4 15.4 15.2 99 0.1 NE 9 13 5 7 1014.0 1010.0 0.0
26/11:12pm 15.4 15.3 14.9 97 0.3 NE 9 11 5 6 1014.1 1010.1 0.0
26/11:00pm 15.5 15.0 14.9 96 0.4 NE 11 15 6 8 1014.0 1010.0 0.0
26/10:30pm 15.5 14.7 15.2 98 0.2 NE 13 17 7 9 1013.9 1009.9 0.0
26/10:25pm 15.5 14.7 15.2 98 0.2 NE 13 17 7 9 1013.9 1009.9 0.0
26/10:00pm 15.8 15.8 15.2 96 0.4 NE 9 13 5 7 1013.9 1009.9 0.0
26/09:30pm 15.8 15.2 14.7 93 0.7 ENE 11 13 6 7 1013.6 1009.6 0.0
26/09:00pm 16.4 14.8 14.9 91 0.9 ENE 17 24 9 13 1013.2 1009.1 0.0
26/08:30pm 17.1 17.0 14.9 87 1.3 SE 9 13 5 7 1012.4 1008.3 0.0
26/08:00pm 17.6 15.4 14.3 81 2.0 SSE 19 26 10 14 1011.8 1007.8 0.0
26/07:30pm 18.8 16.5 11.6 63 4.1 SSE 15 17 8 9 1011.2 1007.1 0.0
26/07:00pm 20.1 17.6 11.1 56 5.2 SSE 15 20 8 11 1010.5 1006.4 0.0
26/06:30pm 20.4 18.3 11.3 56 5.2 SSE 13 19 7 10 1010.3 1006.2 0.0
26/06:00pm 22.1 19.5 10.6 48 6.6 SSE 15 22 8 12 1010.1 1006.0 0.0
26/05:30pm 22.5 19.1 9.3 43 7.4 SSW 17 24 9 13 1010.0 1005.9 0.0
26/05:00pm 21.6 19.1 12.2 55 5.5 SSW 17 26 9 14 1010.1 1006.0 0.0
26/04:30pm 22.4 19.5 12.9 55 5.7 SSW 20 28 11 15 1010.2 1006.1 0.0
26/04:00pm 23.1 20.0 13.3 54 5.9 S 22 30 12 16 1010.0 1005.9 0.0
26/03:30pm 21.3 18.7 13.7 62 4.6 S 20 28 11 15 1010.1 1006.0 0.0
26/03:00pm 22.5 20.9 11.6 50 6.4 S 11 19 6 10 1010.2 1006.1 0.0
26/02:30pm 22.3 21.9 14.2 60 4.9 ESE 9 13 5 7 1010.6 1006.5 0.0
26/02:00pm 21.7 22.1 13.6 60 4.9 E 4 9 2 5 1010.9 1006.8 0.0
26/01:30pm 20.4 21.1 14.5 69 3.6 ENE 4 7 2 4 1011.2 1007.1 0.0
26/01:00pm 20.1 19.9 14.7 71 3.3 ENE 9 13 5 7 1011.3 1007.2 0.0
26/12:30pm 19.7 20.0 14.5 72 3.2 ENE 6 11 3 6 1011.6 1007.5 0.0
26/12:00pm 19.3 19.3 14.3 73 3.0 ENE 7 11 4 6 1012.0 1007.9 0.0
26/11:30am 18.6 18.1 13.9 74 2.8 NE 9 13 5 7 1012.2 1008.1 0.0
26/11:00am 17.3 16.2 14.2 82 1.9 ENE 13 17 7 9 1012.5 1008.4 0.0
26/10:30am 16.2 15.2 14.7 91 0.9 NE 13 15 7 8 1012.5 1008.4 0.0
26/10:00am 14.8 13.5 13.7 93 0.6 NE 13 15 7 8 1012.7 1008.7 0.0
26/09:30am 13.4 11.7 12.6 95 0.5 NE 13 17 7 9 1012.6 1008.6 0.0
26/09:00am 12.7 10.6 12.5 99 0.1 NE 15 19 8 10 1012.6 1008.6 0.6
26/08:30am 12.2 10.0 12.0 99 0.1 NNE 15 20 8 11 1012.4 1008.3 0.6
26/08:00am 11.8 9.9 11.8 100 0.0 NE 13 15 7 8 1012.2 1008.1 0.6
26/07:30am 10.6 8.3 10.6 100 0.0 NNE 13 15 7 8 1012.3 1008.2 0.6
26/07:00am 9.5 7.3 9.5 100 0.0 NNE 11 13 6 7 1012.2 1008.1 0.6
26/06:30am 9.5 6.9 9.5 100 0.0 NE 13 15 7 8 1012.1 1008.0 0.6
26/06:00am 9.1 6.4 9.0 99 0.1 NNE 13 13 7 7 1011.8 1007.8 0.6
26/05:30am 9.1 6.4 9.0 99 0.1 NNE 13 15 7 8 1012.1 1008.0 0.6
26/05:16am 9.5 6.6 9.5 100 0.0 NE 15 17 8 9 1011.7 1007.7 0.6
26/05:14am 9.6 6.7 9.6 100 0.0 NE 15 17 8 9 1011.7 1007.7 0.6
26/05:00am 9.0 7.1 9.0 100 0.0 ENE 9 11 5 6 1012.0 1007.9 0.6
26/04:30am 9.6 7.8 9.6 100 0.0 N 9 13 5 7 1012.4 1008.3 0.6
26/04:25am 9.3 7.1 9.3 100 0.0 NNE 11 15 6 8 1012.5 1008.4 0.6
26/04:06am 9.4 6.4 9.4 100 0.0 NE 15 17 8 9 1012.4 1008.3 0.6

Other Formats:

Comma delimited format used in spreadsheet applications
http://www.bom.gov.au/fwo/IDN60801/IDN60801.94921.axf

JavaScript Object Notation format (JSON) in row-major order
http://www.bom.gov.au/fwo/IDN60801/IDN60801.94921.json